createdAt,value
2023-02-28T00:01:54.000Z,271.67
2023-02-28T00:03:18.000Z,271.64
2023-02-28T00:05:22.000Z,271.63
2023-02-28T00:06:46.000Z,271.57
2023-02-28T00:08:49.000Z,271.56
2023-02-28T00:10:14.000Z,271.53
2023-02-28T00:12:17.000Z,271.52
2023-02-28T00:13:42.000Z,271.49
2023-02-28T00:15:45.000Z,271.49
2023-02-28T00:17:09.000Z,271.51
2023-02-28T00:19:13.000Z,271.49
2023-02-28T00:20:37.000Z,271.48
2023-02-28T00:22:41.000Z,271.48
2023-02-28T00:24:05.000Z,271.46
2023-02-28T00:26:09.000Z,271.45
2023-02-28T00:27:33.000Z,271.42
2023-02-28T00:29:37.000Z,271.41
2023-02-28T00:31:01.000Z,271.39
2023-02-28T00:33:05.000Z,271.39
2023-02-28T00:34:29.000Z,271.39
2023-02-28T00:36:33.000Z,271.41
2023-02-28T00:39:22.000Z,271.39
2023-02-28T00:40:46.000Z,271.39
2023-02-28T00:42:50.000Z,271.39
2023-02-28T00:44:14.000Z,271.42
2023-02-28T00:46:18.000Z,271.39
2023-02-28T00:47:42.000Z,271.42
2023-02-28T00:49:46.000Z,271.42
2023-02-28T00:51:10.000Z,271.42
2023-02-28T00:53:14.000Z,271.44
2023-02-28T00:54:38.000Z,271.46
2023-02-28T00:56:42.000Z,271.46
2023-02-28T00:58:06.000Z,271.46
2023-02-28T01:00:10.000Z,271.45
2023-02-28T01:01:34.000Z,271.45
2023-02-28T01:03:38.000Z,271.45
2023-02-28T01:05:02.000Z,271.42
2023-02-28T01:07:06.000Z,271.42
2023-02-28T01:08:30.000Z,271.41
2023-02-28T01:10:34.000Z,271.38
2023-02-28T01:11:58.000Z,271.35
2023-02-28T01:14:02.000Z,271.34
2023-02-28T01:16:51.000Z,271.3
2023-02-28T01:18:15.000Z,271.24
2023-02-28T01:20:19.000Z,271.22
2023-02-28T01:21:43.000Z,271.19
2023-02-28T01:23:47.000Z,271.18
2023-02-28T01:25:11.000Z,271.13
2023-02-28T01:27:15.000Z,271.11
2023-02-28T01:28:39.000Z,271.08
2023-02-28T01:30:43.000Z,271.05
2023-02-28T01:32:07.000Z,271.02
2023-02-28T01:34:11.000Z,271.01
2023-02-28T01:35:35.000Z,270.99
2023-02-28T01:37:39.000Z,270.99
2023-02-28T01:39:03.000Z,270.95
2023-02-28T01:41:07.000Z,270.95
2023-02-28T01:42:31.000Z,270.95
2023-02-28T01:44:35.000Z,270.97
2023-02-28T01:45:59.000Z,270.94
2023-02-28T01:48:03.000Z,270.94
2023-02-28T01:49:27.000Z,270.94
2023-02-28T01:51:31.000Z,270.92
2023-02-28T01:54:20.000Z,270.88
2023-02-28T01:55:45.000Z,270.86
2023-02-28T01:57:48.000Z,270.83
2023-02-28T01:59:12.000Z,270.81
2023-02-28T02:01:16.000Z,270.8
2023-02-28T02:02:40.000Z,270.74
2023-02-28T02:04:44.000Z,270.73
2023-02-28T02:06:08.000Z,270.72
2023-02-28T02:08:12.000Z,270.67
2023-02-28T02:09:36.000Z,270.65
2023-02-28T02:11:40.000Z,270.61
2023-02-28T02:13:04.000Z,270.61
2023-02-28T02:15:08.000Z,270.59
2023-02-28T02:16:32.000Z,270.59
2023-02-28T02:18:36.000Z,270.57
2023-02-28T02:20:00.000Z,270.53
2023-02-28T02:22:03.000Z,270.47
2023-02-28T02:23:28.000Z,270.42
2023-02-28T02:25:31.000Z,270.38
2023-02-28T02:26:56.000Z,270.36
2023-02-28T02:28:59.000Z,270.32
2023-02-28T02:31:49.000Z,270.26
2023-02-28T02:33:14.000Z,270.26
2023-02-28T02:35:17.000Z,270.24
2023-02-28T02:36:42.000Z,270.22
2023-02-28T02:38:45.000Z,270.21
2023-02-28T02:40:09.000Z,270.21
2023-02-28T02:42:13.000Z,270.18
2023-02-28T02:43:37.000Z,270.15
2023-02-28T02:45:41.000Z,270.13
2023-02-28T02:47:05.000Z,270.1
2023-02-28T02:49:09.000Z,270.07
2023-02-28T02:50:33.000Z,270.03
2023-02-28T02:52:37.000Z,270
2023-02-28T02:54:01.000Z,269.96
2023-02-28T02:56:04.000Z,269.95
2023-02-28T02:57:29.000Z,269.94
2023-02-28T02:59:32.000Z,269.91
2023-02-28T03:00:57.000Z,269.89
2023-02-28T03:03:00.000Z,269.87
2023-02-28T03:04:25.000Z,269.87
2023-02-28T03:06:28.000Z,269.84
2023-02-28T03:10:50.000Z,269.88
2023-02-28T03:12:48.000Z,269.92
2023-02-28T03:14:12.000Z,269.99
2023-02-28T03:16:16.000Z,270.02
2023-02-28T03:17:40.000Z,270.08
2023-02-28T03:19:44.000Z,270.17
2023-02-28T03:21:08.000Z,270.24
2023-02-28T03:23:11.000Z,270.26
2023-02-28T03:24:36.000Z,270.26
2023-02-28T03:26:39.000Z,270.32
2023-02-28T03:28:04.000Z,270.32
2023-02-28T03:30:07.000Z,270.35
2023-02-28T03:31:32.000Z,270.36
2023-02-28T03:33:36.000Z,270.4
2023-02-28T03:35:00.000Z,270.45
2023-02-28T03:37:04.000Z,270.47
2023-02-28T03:38:28.000Z,270.5
2023-02-28T03:40:32.000Z,270.53
2023-02-28T03:41:56.000Z,270.57
2023-02-28T03:44:00.000Z,270.58
2023-02-28T03:45:24.000Z,270.64
2023-02-28T03:47:28.000Z,270.69
2023-02-28T03:51:49.000Z,270.73
2023-02-28T03:53:42.000Z,270.77
2023-02-28T03:55:06.000Z,270.76
2023-02-28T03:57:10.000Z,270.76
2023-02-28T03:58:34.000Z,270.77
2023-02-28T04:00:38.000Z,270.77
2023-02-28T04:02:02.000Z,270.77
2023-02-28T04:04:06.000Z,270.77
2023-02-28T04:05:30.000Z,270.76
2023-02-28T04:07:34.000Z,270.76
2023-02-28T04:08:58.000Z,270.76
2023-02-28T04:11:02.000Z,270.76
2023-02-28T04:12:26.000Z,270.77
2023-02-28T04:14:30.000Z,270.77
2023-02-28T04:15:54.000Z,270.77
2023-02-28T04:17:58.000Z,270.74
2023-02-28T04:19:22.000Z,270.74
2023-02-28T04:21:26.000Z,270.73
2023-02-28T04:22:52.000Z,270.73
2023-02-28T04:26:28.000Z,270.77
2023-02-28T04:27:02.000Z,270.79
2023-02-28T04:28:26.000Z,270.77
2023-02-28T04:30:30.000Z,270.79
2023-02-28T04:33:13.000Z,270.79
2023-02-28T04:34:38.000Z,270.79
2023-02-28T04:36:41.000Z,270.79
2023-02-28T04:38:06.000Z,270.8
2023-02-28T04:40:09.000Z,270.8
2023-02-28T04:41:33.000Z,270.79
2023-02-28T04:43:37.000Z,270.8
2023-02-28T04:45:02.000Z,270.79
2023-02-28T04:47:05.000Z,270.8
2023-02-28T04:48:30.000Z,270.83
2023-02-28T04:50:33.000Z,270.83
2023-02-28T04:51:58.000Z,270.84
2023-02-28T04:54:01.000Z,270.87
2023-02-28T04:55:26.000Z,270.88
2023-02-28T04:57:29.000Z,270.9
2023-02-28T04:58:54.000Z,270.9
2023-02-28T05:00:57.000Z,270.91
2023-02-28T05:02:21.000Z,270.91
2023-02-28T05:04:25.000Z,270.92
2023-02-28T05:05:50.000Z,270.97
2023-02-28T05:07:53.000Z,270.98
2023-02-28T05:10:43.000Z,270.98
2023-02-28T05:12:07.000Z,270.99
2023-02-28T05:14:10.000Z,270.99
2023-02-28T05:15:35.000Z,271.01
2023-02-28T05:17:39.000Z,270.99
2023-02-28T05:19:03.000Z,271.01
2023-02-28T05:21:07.000Z,271.01
2023-02-28T05:22:31.000Z,271.02
2023-02-28T05:24:34.000Z,271.02
2023-02-28T05:25:59.000Z,271.02
2023-02-28T05:28:02.000Z,271.02
2023-02-28T05:29:27.000Z,271.02
2023-02-28T05:31:30.000Z,271.02
2023-02-28T05:32:55.000Z,271.02
2023-02-28T05:34:59.000Z,271.01
2023-02-28T05:36:23.000Z,271.01
2023-02-28T05:38:27.000Z,271.02
2023-02-28T05:39:51.000Z,271.02
2023-02-28T05:41:55.000Z,270.99
2023-02-28T05:43:19.000Z,270.99
2023-02-28T05:45:22.000Z,270.98
2023-02-28T05:48:11.000Z,270.95
2023-02-28T05:49:36.000Z,270.95
2023-02-28T05:51:39.000Z,270.98
2023-02-28T05:53:04.000Z,270.95
2023-02-28T05:55:07.000Z,270.97
2023-02-28T05:56:32.000Z,270.97
2023-02-28T05:58:35.000Z,270.98
2023-02-28T06:00:00.000Z,270.98
2023-02-28T06:02:03.000Z,270.98
2023-02-28T06:03:28.000Z,270.99
2023-02-28T06:05:31.000Z,271.02
2023-02-28T06:06:55.000Z,271.02
2023-02-28T06:08:59.000Z,271.04
2023-02-28T06:10:24.000Z,271.02
2023-02-28T06:12:27.000Z,271.01
2023-02-28T06:13:52.000Z,271.02
2023-02-28T06:15:55.000Z,270.99
2023-02-28T06:17:19.000Z,270.98
2023-02-28T06:19:23.000Z,270.98
2023-02-28T06:20:47.000Z,270.94
2023-02-28T06:22:51.000Z,270.94
2023-02-28T06:25:40.000Z,270.94
2023-02-28T06:27:04.000Z,270.92
2023-02-28T06:29:08.000Z,270.9
2023-02-28T06:30:32.000Z,270.9
2023-02-28T06:32:35.000Z,270.91
2023-02-28T06:34:00.000Z,270.9
2023-02-28T06:36:03.000Z,270.88
2023-02-28T06:37:28.000Z,270.87
2023-02-28T06:39:31.000Z,270.9
2023-02-28T06:40:56.000Z,270.9
2023-02-28T06:42:59.000Z,270.91
2023-02-28T06:44:24.000Z,270.91
2023-02-28T06:46:27.000Z,270.9
2023-02-28T06:47:52.000Z,270.92
2023-02-28T06:49:55.000Z,270.95
2023-02-28T06:51:20.000Z,271.01
2023-02-28T06:53:23.000Z,271.02
2023-02-28T06:54:48.000Z,271.08
2023-02-28T06:56:51.000Z,271.12
2023-02-28T06:58:16.000Z,271.18
2023-02-28T07:00:19.000Z,271.2
2023-02-28T07:03:08.000Z,271.26
2023-02-28T07:04:33.000Z,271.27
2023-02-28T07:06:36.000Z,271.35
2023-02-28T07:08:01.000Z,271.38
2023-02-28T07:10:04.000Z,271.41
2023-02-28T07:11:29.000Z,271.46
2023-02-28T07:13:33.000Z,271.46
2023-02-28T07:14:57.000Z,271.53
2023-02-28T07:17:01.000Z,271.56
2023-02-28T07:18:25.000Z,271.6
2023-02-28T07:20:29.000Z,271.66
2023-02-28T07:21:53.000Z,271.7
2023-02-28T07:23:57.000Z,271.74
2023-02-28T07:25:21.000Z,271.78
2023-02-28T07:27:24.000Z,271.83
2023-02-28T07:28:49.000Z,271.87
2023-02-28T07:30:52.000Z,271.87
2023-02-28T07:32:17.000Z,271.96
2023-02-28T07:34:21.000Z,272.01
2023-02-28T07:35:45.000Z,272.07
2023-02-28T07:37:49.000Z,272.08
2023-02-28T07:40:38.000Z,272.19
2023-02-28T07:42:02.000Z,272.26
2023-02-28T07:44:05.000Z,272.29
2023-02-28T07:45:30.000Z,272.28
2023-02-28T07:47:33.000Z,272.29
2023-02-28T07:48:58.000Z,272.37
2023-02-28T07:51:01.000Z,272.42
2023-02-28T07:52:26.000Z,272.43
2023-02-28T07:54:29.000Z,272.49
2023-02-28T07:55:54.000Z,272.49
2023-02-28T07:58:00.000Z,272.5
2023-02-28T07:59:24.000Z,272.53
2023-02-28T08:01:28.000Z,272.58
2023-02-28T08:02:53.000Z,272.63
2023-02-28T08:04:56.000Z,272.66
2023-02-28T08:06:21.000Z,272.66
2023-02-28T08:08:24.000Z,272.66
2023-02-28T08:09:49.000Z,272.7
2023-02-28T08:11:52.000Z,272.73
2023-02-28T08:13:17.000Z,272.82
2023-02-28T08:15:20.000Z,272.87
2023-02-28T08:18:09.000Z,272.93
2023-02-28T08:19:34.000Z,272.97
2023-02-28T08:21:37.000Z,273.02
2023-02-28T08:23:02.000Z,273.08
2023-02-28T08:25:05.000Z,273.12
2023-02-28T08:26:30.000Z,273.14
2023-02-28T08:28:34.000Z,273.18
2023-02-28T08:29:58.000Z,273.24
2023-02-28T08:32:02.000Z,273.28
2023-02-28T08:33:27.000Z,273.36
2023-02-28T08:35:31.000Z,273.38
2023-02-28T08:36:56.000Z,273.39
2023-02-28T08:39:02.000Z,273.41
2023-02-28T08:40:29.000Z,273.45
2023-02-28T08:42:35.000Z,273.49
2023-02-28T08:44:01.000Z,273.53
2023-02-28T08:46:07.000Z,273.54
2023-02-28T08:47:34.000Z,273.57
2023-02-28T08:49:40.000Z,273.6
2023-02-28T08:51:07.000Z,273.61
2023-02-28T08:53:14.000Z,273.61
2023-02-28T08:56:05.000Z,273.66
2023-02-28T08:57:32.000Z,273.68
2023-02-28T08:59:38.000Z,273.68
2023-02-28T09:01:05.000Z,273.71
2023-02-28T09:03:11.000Z,273.68
2023-02-28T09:04:38.000Z,273.66
2023-02-28T09:06:44.000Z,273.68
2023-02-28T09:08:10.000Z,273.73
2023-02-28T09:10:16.000Z,273.75
2023-02-28T09:11:43.000Z,273.79
2023-02-28T09:13:49.000Z,273.84
2023-02-28T09:15:15.000Z,273.82
2023-02-28T09:17:21.000Z,273.84
2023-02-28T09:18:48.000Z,273.81
2023-02-28T09:20:54.000Z,273.82
2023-02-28T09:22:21.000Z,273.85
2023-02-28T09:24:27.000Z,273.81
2023-02-28T09:25:53.000Z,273.82
2023-02-28T09:27:59.000Z,273.88
2023-02-28T09:29:26.000Z,273.94
2023-02-28T09:31:32.000Z,273.94
2023-02-28T09:34:23.000Z,274
2023-02-28T09:35:50.000Z,274.04
2023-02-28T09:37:56.000Z,274.06
2023-02-28T09:39:23.000Z,274.07
2023-02-28T09:41:29.000Z,274.12
2023-02-28T09:42:55.000Z,274.14
2023-02-28T09:45:01.000Z,274.11
2023-02-28T09:46:28.000Z,274.1
2023-02-28T09:48:34.000Z,274.08
2023-02-28T09:50:01.000Z,274.14
2023-02-28T09:52:07.000Z,274.12
2023-02-28T09:53:33.000Z,274.15
2023-02-28T09:55:40.000Z,274.21
2023-02-28T09:57:13.000Z,274.22
2023-02-28T09:59:19.000Z,274.24
2023-02-28T10:00:45.000Z,274.31
2023-02-28T10:02:52.000Z,274.4
2023-02-28T10:04:18.000Z,274.49
2023-02-28T10:06:24.000Z,274.59
2023-02-28T10:07:51.000Z,274.59
2023-02-28T10:09:57.000Z,274.66
2023-02-28T10:12:48.000Z,274.83
2023-02-28T10:14:15.000Z,274.92
2023-02-28T10:16:21.000Z,275.05
2023-02-28T10:17:47.000Z,275.12
2023-02-28T10:20:01.000Z,275.2
2023-02-28T10:21:28.000Z,275.24
2023-02-28T10:23:34.000Z,275.32
2023-02-28T10:25:00.000Z,275.42
2023-02-28T10:27:08.000Z,275.48
2023-02-28T10:28:34.000Z,275.55
2023-02-28T10:30:41.000Z,275.57
2023-02-28T10:32:07.000Z,275.59
2023-02-28T10:34:13.000Z,275.63
2023-02-28T10:35:40.000Z,275.64
2023-02-28T10:37:46.000Z,275.71
2023-02-28T10:39:13.000Z,275.7
2023-02-28T10:41:19.000Z,275.63
2023-02-28T10:42:45.000Z,275.57
2023-02-28T10:44:51.000Z,275.55
2023-02-28T10:46:18.000Z,275.59
2023-02-28T10:48:24.000Z,275.64
2023-02-28T10:51:15.000Z,275.67
2023-02-28T10:52:42.000Z,275.6
2023-02-28T10:54:48.000Z,275.57
2023-02-28T10:56:15.000Z,275.55
2023-02-28T10:58:21.000Z,275.55
2023-02-28T10:59:47.000Z,275.5
2023-02-28T11:01:53.000Z,275.43
2023-02-28T11:03:20.000Z,275.37
2023-02-28T11:05:26.000Z,275.38
2023-02-28T11:06:53.000Z,275.38
2023-02-28T11:08:59.000Z,275.42
2023-02-28T11:10:25.000Z,275.39
2023-02-28T11:12:32.000Z,275.41
2023-02-28T11:14:00.000Z,275.43
2023-02-28T11:16:06.000Z,275.43
2023-02-28T11:17:33.000Z,275.45
2023-02-28T11:19:39.000Z,275.45
2023-02-28T11:21:05.000Z,275.46
2023-02-28T11:23:12.000Z,275.5
2023-02-28T11:24:38.000Z,275.53
2023-02-28T11:26:44.000Z,275.56
2023-02-28T11:29:35.000Z,275.57
2023-02-28T11:31:02.000Z,275.55
2023-02-28T11:33:08.000Z,275.55
2023-02-28T11:34:35.000Z,275.52
2023-02-28T11:36:41.000Z,275.5
2023-02-28T11:38:07.000Z,275.53
2023-02-28T11:40:14.000Z,275.53
2023-02-28T11:41:40.000Z,275.53
2023-02-28T11:43:47.000Z,275.53
2023-02-28T11:45:14.000Z,275.43
2023-02-28T11:47:20.000Z,275.42
2023-02-28T11:48:46.000Z,275.45
2023-02-28T11:50:52.000Z,275.48
2023-02-28T11:52:19.000Z,275.48
2023-02-28T11:54:25.000Z,275.46
2023-02-28T11:55:51.000Z,275.48
2023-02-28T11:57:58.000Z,275.5
2023-02-28T11:59:24.000Z,275.48
2023-02-28T12:01:30.000Z,275.49
2023-02-28T12:02:58.000Z,275.5
2023-02-28T12:05:04.000Z,275.5
2023-02-28T12:07:55.000Z,275.43
2023-02-28T12:09:21.000Z,275.41
2023-02-28T12:11:27.000Z,275.34
2023-02-28T12:12:55.000Z,275.27
2023-02-28T12:15:01.000Z,275.23
2023-02-28T12:16:27.000Z,275.3
2023-02-28T12:18:33.000Z,275.39
2023-02-28T12:20:00.000Z,275.56
2023-02-28T12:22:06.000Z,275.69
2023-02-28T12:23:33.000Z,275.75
2023-02-28T12:25:39.000Z,275.78
2023-02-28T12:27:05.000Z,275.8
2023-02-28T12:29:11.000Z,275.82
2023-02-28T12:30:38.000Z,275.84
2023-02-28T12:32:44.000Z,275.85
2023-02-28T12:34:10.000Z,275.88
2023-02-28T12:36:16.000Z,275.92
2023-02-28T12:37:43.000Z,275.92
2023-02-28T12:39:49.000Z,275.92
2023-02-28T12:41:17.000Z,275.91
2023-02-28T12:43:23.000Z,275.94
2023-02-28T12:46:14.000Z,275.99
2023-02-28T12:47:41.000Z,276
2023-02-28T12:49:47.000Z,275.99
2023-02-28T12:51:14.000Z,275.95
2023-02-28T12:53:20.000Z,275.94
2023-02-28T12:54:47.000Z,275.92
2023-02-28T12:56:53.000Z,275.85
2023-02-28T12:58:19.000Z,275.87
2023-02-28T13:00:25.000Z,275.91
2023-02-28T13:01:52.000Z,275.88
2023-02-28T13:03:58.000Z,275.87
2023-02-28T13:05:25.000Z,275.82
2023-02-28T13:07:31.000Z,275.85
2023-02-28T13:08:57.000Z,275.81
2023-02-28T13:11:03.000Z,275.82
2023-02-28T13:12:39.000Z,275.82
2023-02-28T13:14:45.000Z,275.84
2023-02-28T13:16:12.000Z,275.88
2023-02-28T13:18:18.000Z,275.92
2023-02-28T13:19:44.000Z,275.95
2023-02-28T13:21:51.000Z,275.95
2023-02-28T13:24:42.000Z,275.99
2023-02-28T13:26:09.000Z,276.02
2023-02-28T13:28:15.000Z,276.04
2023-02-28T13:29:41.000Z,276.11
2023-02-28T13:31:47.000Z,276.14
2023-02-28T13:33:14.000Z,276.18
2023-02-28T13:35:20.000Z,276.19
2023-02-28T13:36:47.000Z,276.22
2023-02-28T13:38:53.000Z,276.23
2023-02-28T13:40:19.000Z,276.25
2023-02-28T13:42:25.000Z,276.29
2023-02-28T13:43:52.000Z,276.33
2023-02-28T13:45:58.000Z,276.35
2023-02-28T13:47:25.000Z,276.37
2023-02-28T13:49:31.000Z,276.4
2023-02-28T13:50:58.000Z,276.43
2023-02-28T13:53:04.000Z,276.44
2023-02-28T13:54:30.000Z,276.48
2023-02-28T13:56:37.000Z,276.51
2023-02-28T13:58:03.000Z,276.54
2023-02-28T14:00:09.000Z,276.6
2023-02-28T14:03:00.000Z,276.62
2023-02-28T14:04:27.000Z,276.65
2023-02-28T14:06:33.000Z,276.62
2023-02-28T14:08:00.000Z,276.65
2023-02-28T14:10:06.000Z,276.66
2023-02-28T14:11:32.000Z,276.7
2023-02-28T14:13:39.000Z,276.74
2023-02-28T14:15:05.000Z,276.79
2023-02-28T14:17:11.000Z,276.81
2023-02-28T14:18:38.000Z,276.84
2023-02-28T14:20:44.000Z,276.84
2023-02-28T14:22:11.000Z,276.84
2023-02-28T14:24:17.000Z,276.83
2023-02-28T14:25:43.000Z,276.86
2023-02-28T14:27:49.000Z,276.88
2023-02-28T14:29:16.000Z,276.9
2023-02-28T14:31:22.000Z,276.91
2023-02-28T14:32:49.000Z,276.91
2023-02-28T14:34:55.000Z,276.86
2023-02-28T14:36:21.000Z,276.84
2023-02-28T14:38:27.000Z,276.81
2023-02-28T14:41:18.000Z,276.8
2023-02-28T14:42:45.000Z,276.81
2023-02-28T14:44:51.000Z,276.8
2023-02-28T14:46:17.000Z,276.83
2023-02-28T14:48:23.000Z,276.88
2023-02-28T14:49:52.000Z,276.9
2023-02-28T14:51:58.000Z,276.94
2023-02-28T14:53:25.000Z,276.98
2023-02-28T14:55:31.000Z,277.01
2023-02-28T14:56:57.000Z,276.99
2023-02-28T14:59:04.000Z,277.06
2023-02-28T15:00:30.000Z,277.05
2023-02-28T15:02:36.000Z,277.08
2023-02-28T15:04:03.000Z,277.06
2023-02-28T15:06:09.000Z,277.08
2023-02-28T15:07:35.000Z,277.06
2023-02-28T15:09:41.000Z,277.06
2023-02-28T15:11:08.000Z,277.06
2023-02-28T15:13:14.000Z,277.09
2023-02-28T15:14:41.000Z,277.09
2023-02-28T15:16:47.000Z,277.06
2023-02-28T15:19:38.000Z,277.12
2023-02-28T15:21:05.000Z,277.08
2023-02-28T15:23:11.000Z,277.06
2023-02-28T15:24:37.000Z,277.06
2023-02-28T15:26:43.000Z,277.08
2023-02-28T15:28:10.000Z,277.02
2023-02-28T15:30:16.000Z,276.97
2023-02-28T15:31:42.000Z,276.99
2023-02-28T15:34:02.000Z,276.98
2023-02-28T15:35:28.000Z,276.93
2023-02-28T15:37:34.000Z,276.87
2023-02-28T15:39:01.000Z,276.84
2023-02-28T15:41:21.000Z,276.86
2023-02-28T15:42:48.000Z,276.84
2023-02-28T15:44:54.000Z,276.83
2023-02-28T15:46:21.000Z,276.76
2023-02-28T15:48:27.000Z,276.74
2023-02-28T15:49:53.000Z,276.68
2023-02-28T15:52:00.000Z,276.66
2023-02-28T15:53:26.000Z,276.64
2023-02-28T15:55:32.000Z,276.61
2023-02-28T15:58:24.000Z,276.47
2023-02-28T15:59:50.000Z,276.36
2023-02-28T16:01:56.000Z,276.26
2023-02-28T16:03:23.000Z,276.15
2023-02-28T16:05:29.000Z,276.07
2023-02-28T16:06:56.000Z,275.99
2023-02-28T16:09:02.000Z,275.92
2023-02-28T16:10:28.000Z,275.82
2023-02-28T16:12:34.000Z,275.77
2023-02-28T16:14:01.000Z,275.7
2023-02-28T16:16:07.000Z,275.64
2023-02-28T16:17:34.000Z,275.57
2023-02-28T16:19:40.000Z,275.53
2023-02-28T16:21:06.000Z,275.48
2023-02-28T16:23:12.000Z,275.41
2023-02-28T16:24:39.000Z,275.34
2023-02-28T16:26:45.000Z,275.31
2023-02-28T16:28:12.000Z,275.27
2023-02-28T16:30:18.000Z,275.22
2023-02-28T16:31:44.000Z,275.15
2023-02-28T16:33:50.000Z,275.12
2023-02-28T16:36:42.000Z,275.04
2023-02-28T16:38:08.000Z,274.98
2023-02-28T16:40:14.000Z,274.94
2023-02-28T16:41:41.000Z,274.9
2023-02-28T16:43:47.000Z,274.87
2023-02-28T16:45:14.000Z,274.8
2023-02-28T16:47:20.000Z,274.76
2023-02-28T16:48:46.000Z,274.72
2023-02-28T16:50:52.000Z,274.71
2023-02-28T16:52:19.000Z,274.66
2023-02-28T16:54:25.000Z,274.62
2023-02-28T16:55:51.000Z,274.59
2023-02-28T16:57:57.000Z,274.54
2023-02-28T16:59:24.000Z,274.5
2023-02-28T17:01:30.000Z,274.49
2023-02-28T17:02:57.000Z,274.44
2023-02-28T17:05:04.000Z,274.39
2023-02-28T17:06:30.000Z,274.35
2023-02-28T17:08:37.000Z,274.33
2023-02-28T17:10:04.000Z,274.28
2023-02-28T17:12:10.000Z,274.29
2023-02-28T17:15:01.000Z,274.25
2023-02-28T17:16:28.000Z,274.22
2023-02-28T17:18:35.000Z,274.19
2023-02-28T17:20:01.000Z,274.18
2023-02-28T17:22:07.000Z,274.14
2023-02-28T17:23:34.000Z,274.11
2023-02-28T17:25:40.000Z,274.07
2023-02-28T17:27:06.000Z,274.03
2023-02-28T17:29:12.000Z,273.99
2023-02-28T17:30:39.000Z,273.97
2023-02-28T17:32:45.000Z,273.93
2023-02-28T17:34:12.000Z,273.88
2023-02-28T17:36:18.000Z,273.88
2023-02-28T17:37:44.000Z,273.85
2023-02-28T17:39:50.000Z,273.82
2023-02-28T17:41:17.000Z,273.79
2023-02-28T17:43:23.000Z,273.77
2023-02-28T17:44:50.000Z,273.73
2023-02-28T17:46:56.000Z,273.7
2023-02-28T17:48:22.000Z,273.67
2023-02-28T17:50:28.000Z,273.64
2023-02-28T17:53:20.000Z,273.59
2023-02-28T17:54:46.000Z,273.57
2023-02-28T17:56:52.000Z,273.56
2023-02-28T17:58:19.000Z,273.53
2023-02-28T18:00:25.000Z,273.5
2023-02-28T18:01:52.000Z,273.49
2023-02-28T18:03:58.000Z,273.49
2023-02-28T18:05:24.000Z,273.47
2023-02-28T18:07:30.000Z,273.45
2023-02-28T18:08:57.000Z,273.45
2023-02-28T18:11:02.000Z,273.42
2023-02-28T18:12:27.000Z,273.39
2023-02-28T18:14:31.000Z,273.38
2023-02-28T18:15:56.000Z,273.38
2023-02-28T18:18:01.000Z,273.35
2023-02-28T18:19:25.000Z,273.33
2023-02-28T18:21:29.000Z,273.31
2023-02-28T18:22:54.000Z,273.28
2023-02-28T18:24:58.000Z,273.3
2023-02-28T18:26:22.000Z,273.27
2023-02-28T18:28:26.000Z,273.26
2023-02-28T18:31:16.000Z,273.23
2023-02-28T18:32:41.000Z,273.21
2023-02-28T18:34:44.000Z,273.18
2023-02-28T18:36:09.000Z,273.16
2023-02-28T18:38:12.000Z,273.15
2023-02-28T18:39:36.000Z,273.12
2023-02-28T18:41:40.000Z,273.08
2023-02-28T18:43:04.000Z,273.07
2023-02-28T18:45:08.000Z,273.04
2023-02-28T18:46:32.000Z,273.01
2023-02-28T18:48:36.000Z,272.98
2023-02-28T18:50:01.000Z,272.98
2023-02-28T18:52:05.000Z,272.97
2023-02-28T18:53:30.000Z,272.95
2023-02-28T18:55:33.000Z,272.93
2023-02-28T18:56:58.000Z,272.9
2023-02-28T18:59:01.000Z,272.84
2023-02-28T19:00:26.000Z,272.8
2023-02-28T19:02:29.000Z,272.77
2023-02-28T19:03:54.000Z,272.7
2023-02-28T19:05:57.000Z,272.66
2023-02-28T19:08:46.000Z,272.59
2023-02-28T19:10:11.000Z,272.54
2023-02-28T19:12:14.000Z,272.53
2023-02-28T19:13:39.000Z,272.49
2023-02-28T19:15:42.000Z,272.47
2023-02-28T19:17:07.000Z,272.39
2023-02-28T19:19:10.000Z,272.35
2023-02-28T19:20:35.000Z,272.29
2023-02-28T19:22:38.000Z,272.26
2023-02-28T19:24:03.000Z,272.19
2023-02-28T19:26:06.000Z,272.18
2023-02-28T19:27:31.000Z,272.12
2023-02-28T19:29:34.000Z,272.08
2023-02-28T19:30:59.000Z,272.04
2023-02-28T19:33:02.000Z,272
2023-02-28T19:34:26.000Z,271.97
2023-02-28T19:36:30.000Z,271.94
2023-02-28T19:37:54.000Z,271.85
2023-02-28T19:39:58.000Z,271.81
2023-02-28T19:41:22.000Z,271.77
2023-02-28T19:43:26.000Z,271.76
2023-02-28T19:47:48.000Z,271.69
2023-02-28T19:49:41.000Z,271.55
2023-02-28T19:51:05.000Z,271.51
2023-02-28T19:53:08.000Z,271.45
2023-02-28T19:54:33.000Z,271.37
2023-02-28T19:56:36.000Z,271.35
2023-02-28T19:58:01.000Z,271.34
2023-02-28T20:00:04.000Z,271.32
2023-02-28T20:01:29.000Z,271.3
2023-02-28T20:03:32.000Z,271.24
2023-02-28T20:04:57.000Z,271.2
2023-02-28T20:07:04.000Z,271.16
2023-02-28T20:08:28.000Z,271.15
2023-02-28T20:10:32.000Z,271.11
2023-02-28T20:11:56.000Z,271.09
2023-02-28T20:14:00.000Z,271.05
2023-02-28T20:15:24.000Z,271.01
2023-02-28T20:17:28.000Z,270.98
2023-02-28T20:18:52.000Z,270.95
2023-02-28T20:20:55.000Z,270.92
2023-02-28T20:22:20.000Z,270.92
2023-02-28T20:24:23.000Z,270.91
2023-02-28T20:27:13.000Z,270.86
2023-02-28T20:28:37.000Z,270.86
2023-02-28T20:30:40.000Z,270.88
2023-02-28T20:32:05.000Z,270.84
2023-02-28T20:34:08.000Z,270.8
2023-02-28T20:35:33.000Z,270.8
2023-02-28T20:37:36.000Z,270.8
2023-02-28T20:39:01.000Z,270.76
2023-02-28T20:41:04.000Z,270.74
2023-02-28T20:42:29.000Z,270.72
2023-02-28T20:44:32.000Z,270.72
2023-02-28T20:45:57.000Z,270.69
2023-02-28T20:48:00.000Z,270.69
2023-02-28T20:49:25.000Z,270.64
2023-02-28T20:51:28.000Z,270.64
2023-02-28T20:52:53.000Z,270.61
2023-02-28T20:54:56.000Z,270.58
2023-02-28T20:56:21.000Z,270.58
2023-02-28T20:58:24.000Z,270.57
2023-02-28T20:59:48.000Z,270.53
2023-02-28T21:01:52.000Z,270.5
2023-02-28T21:04:41.000Z,270.45
2023-02-28T21:06:05.000Z,270.42
2023-02-28T21:08:09.000Z,270.42
2023-02-28T21:09:33.000Z,270.4
2023-02-28T21:11:37.000Z,270.38
2023-02-28T21:13:01.000Z,270.36
2023-02-28T21:15:05.000Z,270.36
2023-02-28T21:16:29.000Z,270.33
2023-02-28T21:18:33.000Z,270.33
2023-02-28T21:19:57.000Z,270.32
2023-02-28T21:22:01.000Z,270.31
2023-02-28T21:23:25.000Z,270.26
2023-02-28T21:25:29.000Z,270.25
2023-02-28T21:26:53.000Z,270.26
2023-02-28T21:28:57.000Z,270.25
2023-02-28T21:30:21.000Z,270.24
2023-02-28T21:32:25.000Z,270.22
2023-02-28T21:33:49.000Z,270.24
2023-02-28T21:35:53.000Z,270.2
2023-02-28T21:37:17.000Z,270.15
2023-02-28T21:39:21.000Z,270.15
2023-02-28T21:42:10.000Z,270.1
2023-02-28T21:43:35.000Z,270.1
2023-02-28T21:45:38.000Z,270.07
2023-02-28T21:47:03.000Z,270.05
2023-02-28T21:49:06.000Z,270.1
2023-02-28T21:50:31.000Z,270.1
2023-02-28T21:52:34.000Z,270.11
2023-02-28T21:53:59.000Z,270.08
2023-02-28T21:56:02.000Z,270.07
2023-02-28T21:57:26.000Z,270.07
2023-02-28T21:59:30.000Z,270.05
2023-02-28T22:00:54.000Z,270.03
2023-02-28T22:02:58.000Z,270.03
2023-02-28T22:04:22.000Z,270
2023-02-28T22:06:26.000Z,270.02
2023-02-28T22:07:50.000Z,270
2023-02-28T22:09:54.000Z,270
2023-02-28T22:11:18.000Z,270
2023-02-28T22:13:22.000Z,269.99
2023-02-28T22:14:46.000Z,269.98
2023-02-28T22:16:50.000Z,269.98
2023-02-28T22:19:43.000Z,269.96
2023-02-28T22:21:07.000Z,269.96
2023-02-28T22:23:11.000Z,269.95
2023-02-28T22:24:35.000Z,269.95
2023-02-28T22:26:39.000Z,269.94
2023-02-28T22:28:03.000Z,269.92
2023-02-28T22:30:07.000Z,269.91
2023-02-28T22:31:31.000Z,269.91
2023-02-28T22:33:35.000Z,269.87
2023-02-28T22:34:59.000Z,269.87
2023-02-28T22:37:02.000Z,269.85
2023-02-28T22:38:27.000Z,269.82
2023-02-28T22:40:30.000Z,269.81